sim
Sign-in with your pilot id or email,
or register
Callsign
Passwort

Schedule Details

Flight Number: OEC665
Departure: Cologne Bonn Airport (EDDK) at Time
Arrival: Munich Airport (EDDM) at Time

Weather Information
Getting current METAR information for EDDK 240950Z 19011KT 130V220 9999 FEW036 17/08 Q1006 NOSIG
Getting current METAR information for EDDM 240950Z 24007KT 9999 FEW025 18/14 Q1011 NOSIG

Schedule Frequency

Route Map